Time;durP1;ratioP1;P1;durP2;ratioP2;P2;SDS_P1;SDS_P2;PMS_P1;PMS_P2;Temp;Humidity;BMP_temperature;BMP_pressure;BME280_temperature;BME280_humidity;BME280_pressure;Samples;Min_cycle;Max_cycle;Signal;HPM_P1;HPM_P2
2023/08/05 00:00:20;;;;;;;72.60;29.60;;;18.00;99.90;;;;;;6244231;23;20645;-75
2023/08/05 00:02:47;;;;;;;71.93;28.47;;;18.10;99.90;;;;;;6244047;23;20415;-75
2023/08/05 00:05:14;;;;;;;72.30;29.70;;;18.10;99.90;;;;;;6244209;23;20444;-75
2023/08/05 00:07:40;;;;;;;73.10;28.50;;;18.00;99.90;;;;;;6243727;23;20927;-76
2023/08/05 00:10:09;;;;;;;74.70;29.70;;;17.90;99.90;;;;;;6244061;23;20400;-75
2023/08/05 00:12:36;;;;;;;77.80;29.13;;;17.90;99.90;;;;;;6243701;23;20936;-75
2023/08/05 00:15:03;;;;;;;73.10;28.43;;;18.00;99.90;;;;;;6243828;23;20908;-75
2023/08/05 00:17:30;;;;;;;74.30;29.37;;;17.90;99.90;;;;;;6244133;23;20424;-75
2023/08/05 00:19:57;;;;;;;70.00;29.20;;;17.90;99.90;;;;;;6244029;23;20403;-76
2023/08/05 00:22:23;;;;;;;76.23;30.13;;;17.90;99.90;;;;;;6243963;23;20396;-77
2023/08/05 00:24:50;;;;;;;71.47;28.27;;;17.90;99.90;;;;;;6243811;23;20426;-77
2023/08/05 00:27:18;;;;;;;73.30;28.33;;;17.90;99.90;;;;;;6244076;23;20400;-77
2023/08/05 00:29:46;;;;;;;72.90;29.50;;;17.90;99.90;;;;;;6244032;23;20404;-75
2023/08/05 00:32:12;;;;;;;75.30;30.50;;;18.00;99.90;;;;;;6243959;23;20458;-75
2023/08/05 00:34:39;;;;;;;72.10;27.13;;;18.10;99.90;;;;;;6243243;23;20436;-75
2023/08/05 00:37:06;;;;;;;73.57;29.30;;;18.10;99.90;;;;;;6244009;23;20412;-75
2023/08/05 00:39:33;;;;;;;73.47;30.10;;;18.10;99.90;;;;;;6243992;23;20404;-77
2023/08/05 00:41:59;;;;;;;71.80;28.87;;;18.10;99.90;;;;;;6243465;23;20404;-77
2023/08/05 00:44:27;;;;;;;70.70;29.37;;;17.90;99.90;;;;;;6244029;23;20410;-77
2023/08/05 00:46:54;;;;;;;75.70;28.87;;;17.90;99.90;;;;;;6243775;23;20447;-75
2023/08/05 00:49:21;;;;;;;71.20;29.13;;;17.80;99.90;;;;;;6243298;23;20896;-75
2023/08/05 00:51:48;;;;;;;76.13;29.37;;;17.80;99.90;;;;;;6243417;23;20403;-75
2023/08/05 00:54:15;;;;;;;72.03;28.43;;;17.80;99.90;;;;;;6243657;23;20403;-75
2023/08/05 00:56:42;;;;;;;70.77;27.73;;;17.70;99.90;;;;;;6243617;23;20403;-75
2023/08/05 00:59:09;;;;;;;70.50;28.00;;;17.70;99.90;;;;;;6243764;23;20411;-75
2023/08/05 01:01:37;;;;;;;73.00;30.03;;;17.60;99.90;;;;;;6243080;23;20459;-75
2023/08/05 01:04:04;;;;;;;71.67;29.23;;;17.60;99.90;;;;;;6243304;23;20404;-75
2023/08/05 01:06:33;;;;;;;74.27;28.83;;;17.60;99.90;;;;;;6243750;23;20447;-75
2023/08/05 01:09:00;;;;;;;73.17;29.17;;;17.50;99.90;;;;;;6243615;23;20411;-76
2023/08/05 01:11:27;;;;;;;77.13;29.80;;;17.50;99.90;;;;;;6243309;23;20895;-76
2023/08/05 01:13:53;;;;;;;71.60;29.53;;;17.50;99.90;;;;;;6243217;23;20404;-76
2023/08/05 01:16:20;;;;;;;73.40;28.60;;;17.40;99.90;;;;;;6243482;23;20400;-76
2023/08/05 01:18:49;;;;;;;87.87;34.43;;;17.40;99.90;;;;;;6243409;23;20404;-76
2023/08/05 01:21:22;;;;;;;73.87;29.13;;;17.40;99.90;;;;;;6243491;23;20427;-76
2023/08/05 01:23:59;;;;;;;75.27;29.83;;;17.40;99.90;;;;;;6243662;23;20392;-76
2023/08/05 01:26:28;;;;;;;72.47;28.70;;;17.40;99.90;;;;;;6243195;23;20751;-76
2023/08/05 01:28:55;;;;;;;74.90;29.27;;;17.40;99.90;;;;;;6242949;23;20400;-75
2023/08/05 01:31:22;;;;;;;74.93;29.60;;;17.40;99.90;;;;;;6243095;23;20908;-75
2023/08/05 01:33:49;;;;;;;73.13;30.03;;;17.50;99.90;;;;;;6242960;23;20439;-75
2023/08/05 01:36:20;;;;;;;74.10;31.20;;;17.40;99.90;;;;;;6243251;23;20884;-75
2023/08/05 01:38:47;;;;;;;72.97;28.30;;;17.50;99.90;;;;;;6243695;23;20470;-76
2023/08/05 01:41:14;;;;;;;72.70;29.70;;;17.50;99.90;;;;;;6242976;23;20504;-76
2023/08/05 01:43:43;;;;;;;72.83;30.10;;;17.40;99.90;;;;;;6243507;23;20404;-76
2023/08/05 01:46:09;;;;;;;74.10;29.47;;;17.50;99.90;;;;;;6242941;23;20439;-75
2023/08/05 01:48:36;;;;;;;73.40;28.40;;;17.50;99.90;;;;;;6243219;23;20411;-75
2023/08/05 01:51:03;;;;;;;70.47;27.87;;;17.60;99.90;;;;;;6243174;23;20407;-76
2023/08/05 01:53:29;;;;;;;72.30;30.60;;;17.50;99.90;;;;;;6242971;23;20914;-76
2023/08/05 01:55:56;;;;;;;75.10;30.27;;;17.50;99.90;;;;;;6243297;23;20423;-75
2023/08/05 01:58:23;;;;;;;75.30;30.47;;;17.50;99.90;;;;;;6243005;23;20406;-76
2023/08/05 02:00:54;;;;;;;78.17;30.10;;;17.60;99.90;;;;;;6243160;23;20411;-76
2023/08/05 02:03:21;;;;;;;70.30;28.50;;;17.60;99.90;;;;;;6243056;23;20900;-76
2023/08/05 02:05:48;;;;;;;74.47;28.87;;;17.50;99.90;;;;;;6242897;23;20446;-75
2023/08/05 02:08:14;;;;;;;73.50;30.07;;;17.60;99.90;;;;;;6242849;23;20415;-75
2023/08/05 02:10:41;;;;;;;71.13;28.43;;;17.50;99.90;;;;;;6243156;23;20404;-75
2023/08/05 02:13:08;;;;;;;77.00;30.27;;;17.50;99.90;;;;;;6242836;23;20435;-75
2023/08/05 02:15:35;;;;;;;73.67;30.50;;;17.40;99.90;;;;;;6243250;23;20404;-76
2023/08/05 02:18:03;;;;;;;75.20;29.70;;;17.50;99.90;;;;;;6243179;23;20404;-75
2023/08/05 02:20:30;;;;;;;72.10;28.33;;;17.50;99.90;;;;;;6242989;23;20414;-76
2023/08/05 02:22:56;;;;;;;72.80;30.00;;;17.60;99.90;;;;;;6242846;23;20408;-77
2023/08/05 02:25:23;;;;;;;71.57;30.00;;;17.60;99.90;;;;;;6243095;23;20715;-77
2023/08/05 02:27:50;;;;;;;72.97;28.33;;;17.60;99.90;;;;;;6243072;23;20411;-77
2023/08/05 02:30:17;;;;;;;74.70;29.27;;;17.50;99.90;;;;;;6242892;23;20414;-77
2023/08/05 02:32:43;;;;;;;73.37;30.20;;;17.40;99.90;;;;;;6243063;23;20400;-78
2023/08/05 02:35:11;;;;;;;75.30;29.90;;;17.40;99.90;;;;;;6243319;23;20392;-77
2023/08/05 02:37:38;;;;;;;71.67;27.70;;;17.30;99.90;;;;;;6243608;23;20411;-77
2023/08/05 02:40:06;;;;;;;74.80;31.33;;;17.20;99.90;;;;;;6245222;23;20776;-77
2023/08/05 02:42:33;;;;;;;75.17;30.33;;;17.10;99.90;;;;;;6245192;23;20432;-77
2023/08/05 02:44:59;;;;;;;75.23;30.60;;;16.90;99.90;;;;;;6244725;23;20896;-78
2023/08/05 02:47:26;;;;;;;73.43;28.83;;;16.80;99.90;;;;;;6245071;23;20637;-77
2023/08/05 02:49:54;;;;;;;77.13;30.73;;;16.70;99.90;;;;;;6245122;23;20468;-77
2023/08/05 02:52:22;;;;;;;73.97;31.50;;;16.70;99.90;;;;;;6244999;23;20404;-77
2023/08/05 02:54:48;;;;;;;73.07;28.43;;;16.60;99.90;;;;;;6244951;23;20779;-77
2023/08/05 02:57:15;;;;;;;72.87;31.30;;;16.60;99.90;;;;;;6245017;23;20400;-77
2023/08/05 02:59:42;;;;;;;76.67;32.33;;;16.60;99.90;;;;;;6245004;23;20407;-77
2023/08/05 03:02:09;;;;;;;73.73;32.20;;;16.60;99.90;;;;;;6244419;23;20410;-77
2023/08/05 03:04:35;;;;;;;78.63;32.50;;;16.60;99.90;;;;;;6244907;23;20746;-76
2023/08/05 03:07:02;;;;;;;72.70;30.37;;;16.70;99.90;;;;;;6244758;23;20450;-80
2023/08/05 03:09:30;;;;;;;74.37;30.10;;;16.70;99.90;;;;;;6244757;23;20430;-78
2023/08/05 03:11:57;;;;;;;72.17;30.33;;;16.80;99.90;;;;;;6244632;23;20453;-76
2023/08/05 03:14:23;;;;;;;75.00;30.90;;;16.90;99.90;;;;;;6244562;23;20515;-76
2023/08/05 03:16:50;;;;;;;74.27;32.00;;;16.90;99.90;;;;;;6244354;23;20888;-76
2023/08/05 03:19:17;;;;;;;78.50;31.60;;;17.00;99.90;;;;;;6244639;23;20411;-77
2023/08/05 03:21:43;;;;;;;77.80;30.60;;;17.10;99.90;;;;;;6244778;23;20411;-78
2023/08/05 03:24:10;;;;;;;75.27;30.07;;;17.10;99.90;;;;;;6244769;23;20407;-79
2023/08/05 03:26:38;;;;;;;73.47;30.80;;;17.10;99.90;;;;;;6244041;23;20435;-77
2023/08/05 03:29:05;;;;;;;71.57;28.87;;;17.20;99.90;;;;;;6244619;23;20407;-77
2023/08/05 03:31:32;;;;;;;76.97;30.80;;;17.20;99.90;;;;;;6244801;23;20400;-77
2023/08/05 03:33:59;;;;;;;72.87;30.67;;;17.20;99.90;;;;;;6244143;23;20451;-76
2023/08/05 03:36:25;;;;;;;77.43;29.90;;;17.20;99.90;;;;;;6244140;23;20888;-76
2023/08/05 03:38:52;;;;;;;72.97;29.80;;;17.10;99.90;;;;;;6244435;23;20407;-79
2023/08/05 03:41:19;;;;;;;72.97;29.77;;;17.20;99.90;;;;;;6244334;23;20415;-78
2023/08/05 03:43:47;;;;;;;78.13;31.70;;;17.10;99.90;;;;;;6244362;23;20438;-78
2023/08/05 03:46:14;;;;;;;73.47;30.27;;;17.10;99.90;;;;;;6244397;23;20448;-76
2023/08/05 03:48:40;;;;;;;74.10;30.13;;;17.20;99.90;;;;;;6244133;23;20404;-76
2023/08/05 03:51:07;;;;;;;76.20;32.53;;;17.20;99.90;;;;;;6243905;23;20828;-78
2023/08/05 03:53:35;;;;;;;77.00;31.10;;;17.20;99.90;;;;;;6244150;23;20404;-76
2023/08/05 03:56:02;;;;;;;77.23;29.30;;;17.10;99.90;;;;;;6244672;23;20408;-76
2023/08/05 03:58:28;;;;;;;76.07;31.30;;;17.20;99.90;;;;;;6244396;23;20404;-76
2023/08/05 04:00:56;;;;;;;73.10;31.10;;;17.20;99.90;;;;;;6244151;23;20415;-76
2023/08/05 04:03:23;;;;;;;72.13;30.50;;;17.20;99.90;;;;;;6244358;23;20679;-76
2023/08/05 04:05:50;;;;;;;73.87;30.67;;;17.20;99.90;;;;;;6244076;23;20408;-77
2023/08/05 04:08:17;;;;;;;75.57;31.50;;;17.20;99.90;;;;;;6244407;23;20812;-76
2023/08/05 04:10:44;;;;;;;74.17;32.10;;;17.30;99.90;;;;;;6244226;23;20408;-76
2023/08/05 04:13:11;;;;;;;74.67;29.40;;;17.20;99.90;;;;;;6244206;23;20420;-76
2023/08/05 04:15:38;;;;;;;72.50;30.73;;;17.20;99.90;;;;;;6243672;23;20896;-77
2023/08/05 04:18:07;;;;;;;74.57;31.27;;;17.10;99.90;;;;;;6244199;23;20400;-76
2023/08/05 04:20:36;;;;;;;73.10;29.73;;;17.20;99.90;;;;;;6243997;23;20406;-76
2023/08/05 04:23:05;;;;;;;74.27;31.20;;;17.20;99.90;;;;;;6244148;23;20416;-76
2023/08/05 04:25:32;;;;;;;72.40;28.90;;;17.10;99.90;;;;;;6243782;23;20454;-76
2023/08/05 04:27:59;;;;;;;71.17;29.47;;;17.10;99.90;;;;;;6243400;23;20963;-76
2023/08/05 04:30:26;;;;;;;74.00;31.40;;;17.10;99.90;;;;;;6243896;23;20400;-75
2023/08/05 04:32:53;;;;;;;73.90;30.97;;;17.00;99.90;;;;;;6243677;23;20427;-75
2023/08/05 04:35:21;;;;;;;72.80;30.50;;;17.10;99.90;;;;;;6243958;23;20722;-75
2023/08/05 04:37:47;;;;;;;73.90;31.37;;;17.10;99.90;;;;;;6243932;23;20401;-75
2023/08/05 04:40:14;;;;;;;76.33;29.73;;;17.10;99.90;;;;;;6243326;23;20400;-75
2023/08/05 04:42:41;;;;;;;75.10;29.17;;;17.10;99.90;;;;;;6243833;23;20411;-75
2023/08/05 04:45:09;;;;;;;74.37;29.33;;;17.10;99.90;;;;;;6243692;23;20408;-75
2023/08/05 04:47:36;;;;;;;73.00;28.80;;;17.10;99.90;;;;;;6243290;23;20448;-75
2023/08/05 04:50:03;;;;;;;74.30;29.70;;;17.20;99.90;;;;;;6243887;23;20725;-76
2023/08/05 04:52:31;;;;;;;76.37;31.30;;;17.20;99.90;;;;;;6243466;23;20483;-75
2023/08/05 04:54:58;;;;;;;72.27;28.53;;;17.80;99.90;;;;;;6243552;23;20462;-75
2023/08/05 04:57:24;;;;;;;76.40;30.33;;;17.20;99.90;;;;;;6243810;23;20439;-75
2023/08/05 04:59:51;;;;;;;74.60;29.97;;;17.20;99.90;;;;;;6243633;23;20407;-75
2023/08/05 05:02:18;;;;;;;75.30;30.17;;;17.30;99.90;;;;;;6236499;22;20432;-75
2023/08/05 05:04:44;;;;;;;72.50;29.13;;;17.30;99.90;;;;;;6243619;23;20406;-75
2023/08/05 05:07:11;;;;;;;74.53;30.90;;;17.30;99.90;;;;;;6243788;23;20534;-76
2023/08/05 05:09:39;;;;;;;71.83;28.80;;;17.30;99.90;;;;;;6243570;23;20411;-75
2023/08/05 05:12:06;;;;;;;73.00;29.83;;;17.30;99.90;;;;;;6242914;23;20939;-77
2023/08/05 05:14:33;;;;;;;72.57;29.17;;;17.30;99.90;;;;;;6243221;23;20411;-77
2023/08/05 05:17:00;;;;;;;73.80;29.93;;;17.40;99.90;;;;;;6243065;23;20406;-76
2023/08/05 05:19:27;;;;;;;70.40;27.07;;;17.40;99.90;;;;;;6243325;23;20408;-76
2023/08/05 05:21:54;;;;;;;72.27;29.80;;;17.50;99.90;;;;;;6243650;23;20407;-76
2023/08/05 05:24:20;;;;;;;73.50;29.20;;;17.50;99.90;;;;;;6243644;23;20404;-76
2023/08/05 05:26:48;;;;;;;77.60;30.40;;;17.50;99.90;;;;;;6243504;23;20457;-75
2023/08/05 05:29:19;;;;;;;70.73;29.13;;;17.60;99.90;;;;;;6243491;23;20407;-75
2023/08/05 05:31:45;;;;;;;74.77;30.87;;;17.70;99.90;;;;;;6243299;23;20454;-75
2023/08/05 05:34:12;;;;;;;76.07;31.17;;;17.70;99.90;;;;;;6242697;23;20431;-75
2023/08/05 05:36:39;;;;;;;74.73;29.73;;;17.60;99.90;;;;;;6242967;23;20955;-79
2023/08/05 05:42:07;;;;;;;73.30;27.87;;;17.50;99.90;;;;;;6186771;23;20720;-77
2023/08/05 05:44:34;;;;;;;71.57;29.70;;;17.70;99.90;;;;;;6243055;23;20396;-76
2023/08/05 05:47:00;;;;;;;73.53;28.83;;;17.60;99.90;;;;;;6242673;23;20450;-76
2023/08/05 05:49:28;;;;;;;78.13;30.30;;;17.80;99.90;;;;;;6242817;23;20915;-76
2023/08/05 05:51:55;;;;;;;71.00;28.07;;;17.80;99.90;;;;;;6243040;23;20411;-76
2023/08/05 05:54:21;;;;;;;74.13;29.00;;;17.90;99.90;;;;;;6242970;23;20408;-76
2023/08/05 05:56:48;;;;;;;73.67;28.90;;;17.90;99.90;;;;;;6243119;23;20404;-76
2023/08/05 05:59:16;;;;;;;70.67;28.50;;;18.00;99.90;;;;;;6243127;23;20503;-76
2023/08/05 06:01:43;;;;;;;71.33;28.50;;;18.10;99.90;;;;;;6243094;23;20412;-76
2023/08/05 06:04:09;;;;;;;71.90;29.17;;;18.20;99.90;;;;;;6242839;23;20404;-76
2023/08/05 06:06:36;;;;;;;71.37;27.97;;;18.20;99.90;;;;;;6243110;23;20721;-76
2023/08/05 06:09:04;;;;;;;71.27;28.83;;;18.20;99.90;;;;;;6242921;23;20400;-76
2023/08/05 06:11:32;;;;;;;73.07;27.57;;;18.40;99.90;;;;;;6243481;23;20793;-75
2023/08/05 06:13:59;;;;;;;71.43;28.77;;;18.50;99.90;;;;;;6245991;23;20732;-76
2023/08/05 06:16:27;;;;;;;75.63;28.40;;;18.60;99.90;;;;;;6245513;23;20400;-76
2023/08/05 06:18:54;;;;;;;71.73;28.23;;;18.90;99.90;;;;;;6245395;23;20395;-76
2023/08/05 06:21:20;;;;;;;71.53;27.67;;;19.10;99.90;;;;;;6245257;23;20410;-77
2023/08/05 06:23:47;;;;;;;70.70;27.33;;;19.20;99.90;;;;;;6245071;23;20410;-77
2023/08/05 06:26:14;;;;;;;70.87;26.77;;;19.40;99.90;;;;;;6245442;23;20408;-77
2023/08/05 06:28:40;;;;;;;71.27;27.23;;;19.50;99.90;;;;;;6245507;23;20443;-76
2023/08/05 06:31:07;;;;;;;69.77;27.17;;;19.50;99.90;;;;;;6245958;23;20407;-77
2023/08/05 06:33:35;;;;;;;70.47;26.57;;;19.60;99.90;;;;;;6251420;23;20432;-77
2023/08/05 06:36:02;;;;;;;71.23;27.37;;;19.80;99.90;;;;;;6249475;23;20720;-77
2023/08/05 06:38:28;;;;;;;69.10;26.03;;;19.80;99.90;;;;;;6254642;23;20644;-78
2023/08/05 06:40:55;;;;;;;74.87;26.87;;;19.90;99.90;;;;;;6241985;23;20443;-77
2023/08/05 06:43:22;;;;;;;70.70;26.17;;;20.00;99.90;;;;;;6245700;23;20404;-77
2023/08/05 06:45:48;;;;;;;69.10;24.43;;;20.40;99.90;;;;;;6251956;23;20915;-76
2023/08/05 06:48:15;;;;;;;69.27;26.27;;;20.70;99.90;;;;;;6252974;23;20450;-76
2023/08/05 06:50:43;;;;;;;69.00;26.13;;;20.80;99.90;;;;;;6252846;23;20407;-77
2023/08/05 06:53:10;;;;;;;68.07;23.57;;;20.90;99.90;;;;;;6252047;23;20411;-77
2023/08/05 06:55:36;;;;;;;71.33;25.97;;;21.10;99.90;;;;;;6250859;23;20432;-76
2023/08/05 06:58:03;;;;;;;72.10;26.80;;;21.20;99.90;;;;;;6251063;23;20411;-77
2023/08/05 07:00:30;;;;;;;68.83;25.43;;;20.80;99.90;;;;;;6244509;23;20404;-77
2023/08/05 07:02:58;;;;;;;69.73;26.20;;;20.70;99.90;;;;;;6244343;23;20413;-76
2023/08/05 07:05:25;;;;;;;69.67;26.13;;;21.00;99.90;;;;;;6244519;23;20415;-77
2023/08/05 07:07:53;;;;;;;73.97;25.83;;;21.20;99.90;;;;;;6244122;23;20739;-76
2023/08/05 07:10:19;;;;;;;70.30;25.03;;;21.60;99.90;;;;;;6244161;23;20404;-77
2023/08/05 07:12:46;;;;;;;70.53;25.63;;;21.90;99.90;;;;;;6244608;23;20447;-76
2023/08/05 07:15:13;;;;;;;71.90;27.10;;;21.50;99.90;;;;;;6244497;23;20724;-77
2023/08/05 07:17:39;;;;;;;68.20;26.17;;;21.70;99.90;;;;;;6243929;23;20422;-76
2023/08/05 07:20:08;;;;;;;69.80;25.90;;;21.70;99.90;;;;;;6244451;23;20473;-76
2023/08/05 07:22:35;;;;;;;69.33;26.03;;;22.20;99.90;;;;;;6244242;23;20423;-77
2023/08/05 07:25:04;;;;;;;71.07;26.60;;;22.20;99.90;;;;;;6243342;23;20412;-76
2023/08/05 07:27:30;;;;;;;69.43;26.20;;;22.40;99.90;;;;;;6244063;23;20444;-76
2023/08/05 07:29:57;;;;;;;67.60;25.50;;;22.60;99.90;;;;;;6244209;23;20407;-76
2023/08/05 07:32:24;;;;;;;76.00;27.20;;;23.10;99.90;;;;;;6243973;23;20407;-76
2023/08/05 07:34:54;;;;;;;68.07;27.00;;;23.50;99.90;;;;;;6243732;23;20913;-77
2023/08/05 07:37:21;;;;;;;66.90;25.40;;;23.70;99.90;;;;;;6244489;23;20491;-77
2023/08/05 07:39:48;;;;;;;68.93;25.00;;;23.90;99.90;;;;;;6243869;23;20920;-77
2023/08/05 07:42:19;;;;;;;69.23;26.60;;;23.90;99.90;;;;;;6243960;23;20776;-76
2023/08/05 07:44:46;;;;;;;67.50;25.67;;;23.40;99.90;;;;;;6243987;23;20736;-76
2023/08/05 07:47:13;;;;;;;67.57;26.10;;;23.10;99.90;;;;;;6244299;23;20404;-76
2023/08/05 07:49:40;;;;;;;67.00;25.80;;;22.80;99.90;;;;;;6243695;23;20848;-77
2023/08/05 07:52:07;;;;;;;68.77;25.63;;;22.80;99.90;;;;;;6243690;23;20498;-76
2023/08/05 07:54:34;;;;;;;69.53;25.57;;;22.80;99.90;;;;;;6244049;23;20411;-76
2023/08/05 07:57:00;;;;;;;67.50;25.60;;;22.60;99.90;;;;;;6243839;23;20411;-76
2023/08/05 07:59:30;;;;;;;68.53;26.13;;;22.10;99.90;;;;;;6244085;23;20404;-76
2023/08/05 08:01:57;;;;;;;69.43;25.07;;;22.40;99.90;;;;;;6231276;22;20436;-77
2023/08/05 08:04:24;;;;;;;68.50;26.53;;;23.10;99.90;;;;;;6243860;23;20408;-77
2023/08/05 08:06:52;;;;;;;67.70;26.37;;;24.00;99.90;;;;;;6243253;23;20412;-77
2023/08/05 08:09:18;;;;;;;67.50;25.87;;;24.70;99.30;;;;;;6243073;23;20447;-77
2023/08/05 08:11:45;;;;;;;66.17;25.83;;;25.80;97.90;;;;;;6243751;23;20559;-77
2023/08/05 08:14:12;;;;;;;68.50;26.33;;;27.30;95.50;;;;;;6243471;23;20404;-76
2023/08/05 08:16:40;;;;;;;67.87;26.97;;;27.60;92.70;;;;;;6243657;23;20918;-76
2023/08/05 08:19:07;;;;;;;69.03;25.47;;;26.70;93.30;;;;;;6243740;23;20427;-75
2023/08/05 08:21:34;;;;;;;66.97;26.37;;;26.70;94.20;;;;;;6243745;23;20414;-76
2023/08/05 08:24:00;;;;;;;67.80;27.70;;;27.30;94.20;;;;;;6242982;23;20415;-76
2023/08/05 08:26:27;;;;;;;67.30;26.97;;;28.30;91.30;;;;;;6242965;23;20883;-75
2023/08/05 08:28:54;;;;;;;64.87;25.43;;;27.90;91.50;;;;;;6243587;23;20759;-76
2023/08/05 08:31:20;;;;;;;67.27;26.47;;;27.90;92.00;;;;;;6243418;23;20407;-75
2023/08/05 08:33:50;;;;;;;68.20;28.03;;;28.40;90.70;;;;;;6243120;22;20439;-75
2023/08/05 08:36:17;;;;;;;65.87;26.70;;;29.10;88.70;;;;;;6243512;23;20413;-75
2023/08/05 08:38:43;;;;;;;65.30;26.13;;;29.20;87.70;;;;;;6243722;23;20599;-75
2023/08/05 08:41:10;;;;;;;67.40;26.40;;;29.20;87.00;;;;;;6243310;23;20741;-76
2023/08/05 08:43:38;;;;;;;66.40;27.77;;;28.80;87.90;;;;;;6243337;23;20476;-76
2023/08/05 08:46:07;;;;;;;65.33;27.00;;;29.20;85.10;;;;;;6243334;23;20404;-75
2023/08/05 08:48:36;;;;;;;66.60;29.00;;;29.40;84.00;;;;;;6243576;23;20443;-75
2023/08/05 08:51:04;;;;;;;65.80;28.80;;;29.60;83.60;;;;;;6243314;23;20470;-76
2023/08/05 08:53:32;;;;;;;67.30;27.60;;;29.80;83.00;;;;;;6242920;23;20403;-76
2023/08/05 08:55:59;;;;;;;69.47;29.57;;;30.40;81.20;;;;;;6242876;23;20892;-76
2023/08/05 08:58:26;;;;;;;64.70;27.17;;;31.10;79.00;;;;;;6242733;23;20918;-76
2023/08/05 09:00:54;;;;;;;66.07;27.70;;;31.80;76.60;;;;;;6236576;22;20404;-76
2023/08/05 09:03:24;;;;;;;65.70;27.07;;;31.60;75.80;;;;;;6242923;23;20708;-75
2023/08/05 09:05:55;;;;;;;64.97;27.70;;;30.70;77.70;;;;;;6242908;23;20442;-76
2023/08/05 09:08:23;;;;;;;66.50;26.63;;;30.10;79.70;;;;;;6243098;23;20432;-75
2023/08/05 09:10:50;;;;;;;65.80;26.57;;;29.80;79.70;;;;;;6243053;23;20408;-75
2023/08/05 09:13:19;;;;;;;65.27;26.50;;;29.30;82.00;;;;;;6242625;23;20424;-75
2023/08/05 09:15:47;;;;;;;66.20;27.40;;;29.30;83.50;;;;;;6243170;23;20407;-75
2023/08/05 09:18:14;;;;;;;66.90;29.30;;;29.80;82.80;;;;;;6243114;23;20404;-75
2023/08/05 09:20:40;;;;;;;67.77;27.53;;;30.50;78.00;;;;;;6242886;23;20412;-74
2023/08/05 09:23:10;;;;;;;65.40;26.80;;;29.30;80.90;;;;;;6243264;23;20407;-74
2023/08/05 09:25:42;;;;;;;68.40;26.83;;;29.60;80.40;;;;;;6239238;23;20892;-75
2023/08/05 09:28:10;;;;;;;66.47;27.17;;;29.90;80.20;;;;;;6240800;23;20446;-76
2023/08/05 09:30:37;;;;;;;67.20;28.60;;;30.70;77.60;;;;;;6243221;23;20412;-75
2023/08/05 09:33:04;;;;;;;66.40;26.87;;;31.20;74.20;;;;;;6242754;23;20439;-75
2023/08/05 09:35:31;;;;;;;67.77;28.60;;;30.60;74.50;;;;;;6243076;23;20438;-75
2023/08/05 09:38:00;;;;;;;65.67;28.20;;;30.10;76.30;;;;;;6243144;23;20435;-75
2023/08/05 09:40:28;;;;;;;66.50;26.73;;;31.10;75.20;;;;;;6243080;23;20408;-75
2023/08/05 09:42:59;;;;;;;65.60;27.97;;;32.00;71.10;;;;;;6242965;23;20475;-74
2023/08/05 09:45:28;;;;;;;65.37;26.77;;;33.30;67.80;;;;;;6243128;23;20533;-75
2023/08/05 09:48:03;;;;;;;65.10;28.60;;;33.40;67.40;;;;;;6242401;23;20407;-74
2023/08/05 09:50:31;;;;;;;64.63;27.70;;;33.60;66.20;;;;;;6242836;23;20860;-75
2023/08/05 09:53:01;;;;;;;65.83;28.27;;;33.90;62.90;;;;;;6243104;23;20400;-73
2023/08/05 09:55:28;;;;;;;64.47;26.57;;;32.80;65.60;;;;;;6243067;23;20407;-74
2023/08/05 09:57:57;;;;;;;65.50;26.77;;;32.40;63.80;;;;;;6242616;23;20906;-75
2023/08/05 10:00:25;;;;;;;65.50;26.63;;;31.80;66.80;;;;;;6243157;23;20458;-75
2023/08/05 10:02:52;;;;;;;65.20;27.67;;;31.90;66.10;;;;;;6242982;23;20414;-75
2023/08/05 10:05:19;;;;;;;66.30;29.10;;;32.80;64.80;;;;;;6242895;23;20407;-75
2023/08/05 10:07:45;;;;;;;64.10;28.27;;;34.10;62.00;;;;;;6242828;23;20403;-75
2023/08/05 10:10:16;;;;;;;63.97;28.70;;;35.20;57.40;;;;;;6242718;23;20442;-75
2023/08/05 10:12:45;;;;;;;67.43;28.70;;;35.40;55.40;;;;;;6242936;23;20451;-75
2023/08/05 10:15:19;;;;;;;66.30;26.23;;;33.80;59.00;;;;;;6242845;23;20404;-75
2023/08/05 10:17:47;;;;;;;64.00;25.60;;;33.60;60.60;;;;;;6243088;23;20442;-75
2023/08/05 10:20:14;;;;;;;64.00;26.37;;;32.60;59.40;;;;;;6243053;23;20404;-75
2023/08/05 10:22:41;;;;;;;65.37;27.57;;;32.00;61.20;;;;;;6242465;23;20909;-75
2023/08/05 10:25:08;;;;;;;65.57;28.07;;;30.70;65.50;;;;;;6242858;23;20415;-74
2023/08/05 10:27:37;;;;;;;65.20;27.50;;;30.30;66.50;;;;;;6243085;23;20407;-75
2023/08/05 10:30:09;;;;;;;66.17;26.50;;;28.70;70.20;;;;;;6242928;23;20443;-75
2023/08/05 10:32:49;;;;;;;66.10;26.60;;;28.20;72.80;;;;;;6242554;23;20404;-76
2023/08/05 10:35:30;;;;;;;67.27;27.07;;;27.70;74.40;;;;;;6242821;23;20391;-75
2023/08/05 10:38:12;;;;;;;65.73;24.87;;;27.60;75.50;;;;;;6243030;23;20379;-75
2023/08/05 10:40:49;;;;;;;65.40;25.20;;;27.10;74.40;;;;;;6242878;23;20451;-75
2023/08/05 10:43:34;;;;;;;66.80;26.03;;;26.40;76.20;;;;;;6243068;23;20384;-75
2023/08/05 10:46:02;;;;;;;64.70;25.50;;;26.40;76.10;;;;;;6242765;23;20403;-76
2023/08/05 10:48:31;;;;;;;65.03;24.70;;;26.50;77.20;;;;;;6242730;23;20543;-75
2023/08/05 10:50:59;;;;;;;66.37;24.50;;;26.40;76.30;;;;;;6242832;23;20407;-74
2023/08/05 10:53:25;;;;;;;64.17;23.60;;;26.40;75.40;;;;;;6242744;23;20438;-74
2023/08/05 10:55:56;;;;;;;66.40;26.40;;;26.10;76.70;;;;;;6242288;23;20400;-75
2023/08/05 10:58:24;;;;;;;66.90;24.57;;;25.70;78.30;;;;;;6243639;23;20708;-74
2023/08/05 11:00:58;;;;;;;65.23;24.17;;;25.00;81.60;;;;;;6244669;23;20403;-75
2023/08/05 11:03:29;;;;;;;66.10;24.67;;;25.20;80.80;;;;;;6244089;23;20415;-75
2023/08/05 11:06:01;;;;;;;64.70;24.17;;;25.00;81.90;;;;;;6244635;23;20479;-75
2023/08/05 11:08:28;;;;;;;66.17;26.07;;;25.30;81.60;;;;;;6244382;23;20446;-75
2023/08/05 11:10:54;;;;;;;67.47;25.20;;;25.40;82.10;;;;;;6243969;23;20407;-75
2023/08/05 11:13:21;;;;;;;67.87;26.20;;;25.80;82.80;;;;;;6244369;23;20423;-74
2023/08/05 11:16:04;;;;;;;67.70;27.00;;;26.30;81.00;;;;;;6244157;23;20919;-75
2023/08/05 11:18:31;;;;;;;65.63;25.13;;;26.90;79.20;;;;;;6244636;23;20411;-74
2023/08/05 11:21:00;;;;;;;69.30;26.20;;;26.50;78.60;;;;;;6244342;23;20741;-74
2023/08/05 11:23:27;;;;;;;66.13;24.67;;;26.40;80.30;;;;;;6244418;23;20791;-74
2023/08/05 11:25:54;;;;;;;65.63;25.40;;;26.50;78.60;;;;;;6244375;23;20404;-74
2023/08/05 11:28:22;;;;;;;65.67;25.57;;;26.60;79.90;;;;;;6244056;23;20417;-74
2023/08/05 11:30:49;;;;;;;67.20;25.60;;;26.50;79.70;;;;;;6244264;23;20410;-74
2023/08/05 11:33:16;;;;;;;66.10;25.93;;;26.40;79.40;;;;;;6243977;23;20432;-75
2023/08/05 11:35:44;;;;;;;65.50;25.50;;;27.00;78.80;;;;;;6244414;23;20418;-75
2023/08/05 11:38:15;;;;;;;66.40;25.57;;;26.90;77.40;;;;;;6244290;23;20408;-76
2023/08/05 11:40:43;;;;;;;64.50;25.50;;;27.30;77.30;;;;;;6243980;23;20880;-76
2023/08/05 11:43:11;;;;;;;66.73;25.40;;;27.50;74.90;;;;;;6244087;23;20428;-76
2023/08/05 11:45:41;;;;;;;64.57;26.47;;;27.70;75.80;;;;;;6243904;23;20407;-76
2023/08/05 11:48:17;;;;;;;65.00;25.70;;;28.30;72.20;;;;;;6243603;23;20407;-74
2023/08/05 11:50:44;;;;;;;65.07;27.00;;;29.10;70.80;;;;;;6244188;23;21072;-74
2023/08/05 11:53:12;;;;;;;64.70;27.50;;;29.70;69.30;;;;;;6243749;23;20908;-74
2023/08/05 11:55:40;;;;;;;66.83;26.93;;;30.10;68.30;;;;;;6244046;23;20411;-74
2023/08/05 11:58:07;;;;;;;64.90;27.90;;;30.20;65.70;;;;;;6243983;23;20446;-74
2023/08/05 12:00:34;;;;;;;65.93;26.57;;;30.80;64.60;;;;;;6243624;23;20396;-74
2023/08/05 12:03:04;;;;;;;65.90;28.70;;;32.10;62.00;;;;;;6242694;23;20419;-75
2023/08/05 12:05:31;;;;;;;64.10;27.20;;;33.20;60.30;;;;;;6242550;23;20395;-75
2023/08/05 12:07:58;;;;;;;65.77;28.83;;;34.10;57.70;;;;;;6243060;23;20408;-74
2023/08/05 12:10:27;;;;;;;64.30;28.80;;;34.60;55.60;;;;;;6242815;23;20451;-75
2023/08/05 12:12:55;;;;;;;63.73;28.70;;;35.60;54.70;;;;;;6240339;23;20501;-75
2023/08/05 12:15:25;;;;;;;65.37;29.73;;;36.00;53.30;;;;;;6239294;23;20916;-76
2023/08/05 12:17:53;;;;;;;65.20;28.30;;;36.40;51.20;;;;;;6239742;23;20399;-76
2023/08/05 12:20:22;;;;;;;64.87;27.00;;;35.50;51.70;;;;;;6239482;23;20419;-75
2023/08/05 12:22:49;;;;;;;63.50;27.53;;;34.60;52.60;;;;;;6241339;23;20412;-75
2023/08/05 12:25:16;;;;;;;64.10;28.40;;;33.90;54.30;;;;;;6242453;23;20419;-74
2023/08/05 12:27:45;;;;;;;65.77;30.03;;;33.60;56.40;;;;;;6242501;23;20880;-75
2023/08/05 12:30:12;;;;;;;65.20;29.20;;;34.00;54.20;;;;;;6242495;23;20450;-75
2023/08/05 12:32:39;;;;;;;65.70;30.70;;;34.10;53.80;;;;;;6242675;22;20412;-75